Flight Track Log - Related Links

Times and Time Zones

All times are in EDT time to prevent confusion due to time zone crossing. See the FFT825 flight status page for this flight to view local times or setup timezone preferences in your user account.

Time Position Orientation Groundspeed Altitude Reporting Facility
EDT Latitude Longitude Course Direction KTS MPH feet Rate Location/Type
Fri 11:30:32 AM 39.2833 -94.7333 218° Southwest 168 193 1,700  Level Kansas City TRACON
Fri 11:31:26 AM 39.2500 -94.7667 218° Southwest 180 207 3,200 1,918 Climbing Kansas City TRACON
Fri 11:32:09 AM 39.2169 -94.7906 209° Southwest 224 258 4,800 2,400 Climbing Kansas City Center
Fri 11:33:11 AM 39.1639 -94.8431 218° Southwest 257 296 7,400 2,419 Climbing Kansas City Center
Fri 11:34:13 AM 39.1611 -94.9372 268° West 275 316 9,800 1,355 Climbing Kansas City Center
Fri 11:35:15 AM 39.1594 -95.0636 269° West 324 373 10,200 871 Climbing Kansas City Center
Fri 11:36:17 AM 39.1578 -95.1911 269° West 366 421 11,600 2,758 Climbing Kansas City Center
Fri 11:37:19 AM 39.1561 -95.3306 269° West 351 404 15,900 3,339 Climbing Kansas City Center
Fri 11:38:21 AM 39.1544 -95.4636 269° West 346 398 18,500 2,274 Climbing Kansas City Center
Fri 11:39:23 AM 39.1533 -95.5772 269° West 349 402 20,600 1,935 Climbing Kansas City Center
Fri 11:40:25 AM 39.1508 -95.7231 269° West 366 421 22,500 1,645 Climbing Kansas City Center
Fri 11:41:27 AM 39.1483 -95.8550 269° West 386 444 24,000 1,935 Climbing Kansas City Center
Fri 11:42:29 AM 39.1400 -96.0100 266° West 388 447 26,500 1,968 Climbing Kansas City Center
Fri 11:43:32 AM 39.1219 -96.1442 260° West 394 453 28,100 1,632 Climbing Kansas City Center
Fri 11:44:34 AM 39.1164 -96.3011 267° West 391 450 29,900 919 Climbing Kansas City Center
Fri 11:45:36 AM 39.1131 -96.4458 268° West 418 481 30,000 629 Climbing Kansas City Center
Fri 11:46:38 AM 39.1069 -96.6283 268° West 454 522 31,200 1,452 Climbing Kansas City Center
Fri 11:47:40 AM 39.1019 -96.7781 268° West 444 511 33,000 871 Climbing Kansas City Center
Fri 11:48:42 AM 39.0972 -96.9567 268° West 446 513 33,000  Level Kansas City Center
Fri 11:49:44 AM 39.0936 -97.1125 268° West 454 522 33,000 677 Level Kansas City Center
Fri 11:50:46 AM 39.0892 -97.2678 268° West 454 522 34,400 1,452 Climbing Kansas City Center
Fri 11:51:48 AM 39.0833 -97.4392 268° West 431 496 36,000 1,306 Climbing Kansas City Center
Fri 11:52:50 AM 39.0778 -97.5878 267° West 435 501 37,100 968 Climbing Kansas City Center
Fri 11:53:52 AM 39.0719 -97.7525 267° West 412 474 38,000 435 Climbing Kansas City Center
Fri 11:54:54 AM 39.0661 -97.8961 267° West 414 476 38,000  Level Kansas City Center
Fri 11:55:56 AM 39.0608 -98.0467 267° West 418 481 38,000  Level Kansas City Center
Fri 11:56:58 AM 39.0544 -98.1961 267° West 420 483 38,000  Level Kansas City Center
Fri 11:58:00 AM 39.0472 -98.3700 267° West 414 476 38,000  Level Kansas City Center
Fri 11:59:02 AM 39.0400 -98.5200 266° West 420 483 38,000  Level Kansas City Center
Fri 12:00:05 PM 39.0339 -98.6678 267° West 416 479 38,000  Level Kansas City Center
Fri 12:01:07 PM 39.0281 -98.8161 267° West 417 480 38,000  Level Kansas City Center
Fri 12:02:09 PM 39.0208 -98.9672 267° West 424 488 38,000  Level Kansas City Center
Fri 12:03:11 PM 39.0117 -99.1461 266° West 420 483 38,000  Level Kansas City Center
Fri 12:04:14 PM 39.0039 -99.2972 266° West 424 488 38,000  Level Kansas City Center
Fri 12:05:16 PM 38.9961 -99.4475 266° West 423 487 38,000  Level Kansas City Center
Fri 12:06:18 PM 38.9872 -99.6078 266° West 424 488 38,000  Level Kansas City Center
Fri 12:06:50 PM 38.9831 -99.6789 266° West 424 488 38,000  Level Denver Center
Fri 12:07:52 PM 38.9742 -99.8481 266° West 427 491 38,000  Level Denver Center
Fri 12:08:54 PM 38.9653 -99.9925 266° West 426 490 38,000  Level Denver Center
Fri 12:09:56 PM 38.9561 -100.1631 266° West 430 495 38,000  Level Denver Center
Fri 12:10:58 PM 38.9478 -100.3097 266° West 431 496 38,000 -435 Level Denver Center
Fri 12:12:00 PM 38.9367 -100.4786 265° West 429 494 37,100 -871 Descending Denver Center
Fri 12:13:02 PM 38.9278 -100.6283 266° West 438 504 36,200 -968 Descending Denver Center
Fri 12:14:04 PM 38.9167 -100.8033 265° West 441 507 35,100 -1,016 Descending Denver Center
Fri 12:15:06 PM 38.9075 -100.9539 266° West 444 511 34,100 -532 Descending Denver Center
Fri 12:16:08 PM 38.8953 -101.1306 265° West 446 513 34,000 -48 Descending Denver Center
Fri 12:17:10 PM 38.8858 -101.2839 266° West 452 520 34,000  Level Denver Center
Fri 12:18:12 PM 38.8736 -101.4594 265° West 447 514 34,000  Level Denver Center
Fri 12:19:14 PM 38.8619 -101.6114 264° West 447 514 34,000  Level Denver Center
Fri 12:20:16 PM 38.8500 -101.7894 265° West 450 518 34,000 48 Level Denver Center
Fri 12:21:18 PM 38.8481 -101.9431 269° West 453 521 34,100  Climbing Denver Center
Fri 12:22:20 PM 38.8850 -102.1181 285° West 456 525 34,000 -48 Descending Denver Center
Fri 12:23:22 PM 38.9225 -102.2642 288° West 453 521 34,000  Level Denver Center
Fri 12:24:24 PM 38.9669 -102.4336 289° West 448 516 34,000 -435 Level Denver Center
Fri 12:25:26 PM 39.0039 -102.5794 288° West 449 517 33,100 -1,008 Descending Denver Center
Fri 12:26:29 PM 39.0469 -102.7486 288° West 446 513 31,900 -912 Descending Denver Center
Fri 12:27:31 PM 39.0869 -102.9028 289° West 454 522 31,200 -581 Descending Denver Center
Fri 12:28:33 PM 39.1256 -103.0558 288° West 451 519 30,700 -435 Descending Denver Center
Fri 12:29:35 PM 39.1625 -103.2006 288° West 428 493 30,300 -484 Descending Denver Center
Fri 12:30:37 PM 39.1975 -103.3419 288° West 417 480 29,700 -968 Descending Denver Center
Fri 12:31:39 PM 39.2331 -103.4817 288° West 412 474 28,300 -2,323 Descending Denver Center
Fri 12:32:41 PM 39.2739 -103.6519 287° West 417 480 24,900 -2,613 Descending Denver Center
Fri 12:33:43 PM 39.3228 -103.7786 297° West 394 453 22,900 -1,742 Descending Denver Center
Fri 12:34:45 PM 39.3767 -103.8956 301° West 382 440 21,300 -1,500 Descending Denver Center
Fri 12:35:47 PM 39.4417 -104.0125 306° West 382 440 19,800 -1,597 Descending Denver Center
Fri 12:36:49 PM 39.5092 -104.1258 308° West 366 421 18,000 -1,548 Descending Denver Center
Fri 12:37:51 PM 39.5694 -104.2253 308° West 349 402 16,600 -1,258 Descending Denver Center
Fri 12:38:53 PM 39.6303 -104.3303 307° West 339 390 15,400 -1,161 Descending Denver Center
Fri 12:39:55 PM 39.6889 -104.4261 308° West 339 390 14,200 -1,113 Descending Denver Center
Fri 12:40:57 PM 39.7453 -104.5125 310° West 312 359 13,100 -1,065 Descending Denver Center
Fri 12:41:59 PM 39.8378 -104.5228 355° North 310 357 12,000 -968 Descending Denver Center
Fri 12:43:01 PM 39.9225 -104.5231 360° North 283 326 11,100 -919 Descending Denver Center
Fri 12:44:03 PM 39.9967 -104.5200 North 269 310 10,100 -1,113 Descending Denver Center
Fri 12:45:05 PM 40.0658 -104.5314 353° North 259 298 8,800 -919 Descending Denver Center
Fri 12:46:07 PM 40.0692 -104.6089 273° West 206 237 8,200 -480 Descending Denver Center
Fri 12:47:10 PM 40.0286 -104.6456 215° Southwest 181 208 7,800 -624 Descending Denver Center
Fri 12:48:12 PM 39.9800 -104.6806 209° Southwest 184 212 6,900 -871 Descending Denver Center
Fri 12:49:14 PM 39.9319 -104.6869 186° South 174 200 6,000 -774 Descending Denver Center
Fri 12:50:16 PM 39.8886 -104.6867 180° South 148 170 5,300 -677 Descending Denver Center
Fri 12:52:00 PM 39.8617 -104.6732 199° South  Level Estimated
Fri 12:59:00 PM 39.8617 -104.6732 199° South  Level Estimated

Login

Don't have an account? Register now (free) for customized features, flight alerts, and more!